sensor_id;sensor_type;location;lat;lon;timestamp;P1;durP1;ratioP1;P2;durP2;ratioP2
9968;SDS011;5025;48.890;9.278;2023-04-06T00:00:01;6.33;;;5.77;;
9968;SDS011;5025;48.890;9.278;2023-04-06T00:02:27;7.57;;;6.80;;
9968;SDS011;5025;48.890;9.278;2023-04-06T00:04:52;7.10;;;6.50;;
9968;SDS011;5025;48.890;9.278;2023-04-06T00:07:17;6.37;;;5.77;;
9968;SDS011;5025;48.890;9.278;2023-04-06T00:09:43;6.50;;;5.90;;
9968;SDS011;5025;48.890;9.278;2023-04-06T00:12:08;6.80;;;6.20;;
9968;SDS011;5025;48.890;9.278;2023-04-06T00:14:33;7.50;;;6.70;;
9968;SDS011;5025;48.890;9.278;2023-04-06T00:16:58;6.30;;;5.70;;
9968;SDS011;5025;48.890;9.278;2023-04-06T00:19:24;6.47;;;5.87;;
9968;SDS011;5025;48.890;9.278;2023-04-06T00:21:49;6.83;;;6.23;;
9968;SDS011;5025;48.890;9.278;2023-04-06T00:24:15;6.47;;;5.87;;
9968;SDS011;5025;48.890;9.278;2023-04-06T00:26:40;6.77;;;6.23;;
9968;SDS011;5025;48.890;9.278;2023-04-06T00:29:06;6.70;;;6.10;;
9968;SDS011;5025;48.890;9.278;2023-04-06T00:31:31;6.57;;;5.73;;
9968;SDS011;5025;48.890;9.278;2023-04-06T00:33:57;6.33;;;5.77;;
9968;SDS011;5025;48.890;9.278;2023-04-06T00:36:23;5.80;;;5.40;;
9968;SDS011;5025;48.890;9.278;2023-04-06T00:38:48;5.37;;;4.87;;
9968;SDS011;5025;48.890;9.278;2023-04-06T00:41:13;6.57;;;5.97;;
9968;SDS011;5025;48.890;9.278;2023-04-06T00:43:39;5.43;;;4.93;;
9968;SDS011;5025;48.890;9.278;2023-04-06T00:46:04;5.90;;;5.43;;
9968;SDS011;5025;48.890;9.278;2023-04-06T00:48:30;5.10;;;4.70;;
9968;SDS011;5025;48.890;9.278;2023-04-06T00:50:57;5.63;;;5.13;;
9968;SDS011;5025;48.890;9.278;2023-04-06T00:53:22;5.80;;;5.30;;
9968;SDS011;5025;48.890;9.278;2023-04-06T00:55:47;5.57;;;5.07;;
9968;SDS011;5025;48.890;9.278;2023-04-06T00:58:13;5.17;;;4.77;;
9968;SDS011;5025;48.890;9.278;2023-04-06T01:00:38;5.30;;;4.80;;
9968;SDS011;5025;48.890;9.278;2023-04-06T01:03:03;5.27;;;4.87;;
9968;SDS011;5025;48.890;9.278;2023-04-06T01:05:32;5.40;;;4.90;;
9968;SDS011;5025;48.890;9.278;2023-04-06T01:07:59;5.20;;;4.73;;
9968;SDS011;5025;48.890;9.278;2023-04-06T01:10:25;4.97;;;4.57;;
9968;SDS011;5025;48.890;9.278;2023-04-06T01:12:51;5.80;;;5.10;;
9968;SDS011;5025;48.890;9.278;2023-04-06T01:15:16;5.93;;;5.43;;
9968;SDS011;5025;48.890;9.278;2023-04-06T01:17:42;6.67;;;6.07;;
9968;SDS011;5025;48.890;9.278;2023-04-06T01:20:07;6.10;;;5.60;;
9968;SDS011;5025;48.890;9.278;2023-04-06T01:22:32;5.90;;;5.40;;
9968;SDS011;5025;48.890;9.278;2023-04-06T01:24:58;5.30;;;4.67;;
9968;SDS011;5025;48.890;9.278;2023-04-06T01:27:23;5.33;;;4.87;;
9968;SDS011;5025;48.890;9.278;2023-04-06T01:29:50;5.53;;;5.03;;
9968;SDS011;5025;48.890;9.278;2023-04-06T01:32:15;4.70;;;4.30;;
9968;SDS011;5025;48.890;9.278;2023-04-06T01:34:40;5.70;;;5.20;;
9968;SDS011;5025;48.890;9.278;2023-04-06T01:37:06;5.80;;;5.30;;
9968;SDS011;5025;48.890;9.278;2023-04-06T01:39:31;5.10;;;4.70;;
9968;SDS011;5025;48.890;9.278;2023-04-06T01:41:56;5.47;;;5.07;;
9968;SDS011;5025;48.890;9.278;2023-04-06T01:44:22;5.73;;;5.23;;
9968;SDS011;5025;48.890;9.278;2023-04-06T01:46:47;5.30;;;4.87;;
9968;SDS011;5025;48.890;9.278;2023-04-06T01:49:12;5.27;;;4.80;;
9968;SDS011;5025;48.890;9.278;2023-04-06T01:51:38;5.77;;;5.27;;
9968;SDS011;5025;48.890;9.278;2023-04-06T01:54:03;5.63;;;5.17;;
9968;SDS011;5025;48.890;9.278;2023-04-06T01:56:29;5.63;;;5.13;;
9968;SDS011;5025;48.890;9.278;2023-04-06T01:58:54;5.80;;;5.30;;
9968;SDS011;5025;48.890;9.278;2023-04-06T02:01:20;5.87;;;5.37;;
9968;SDS011;5025;48.890;9.278;2023-04-06T02:03:45;6.23;;;5.67;;
9968;SDS011;5025;48.890;9.278;2023-04-06T02:06:11;6.07;;;5.50;;
9968;SDS011;5025;48.890;9.278;2023-04-06T02:08:36;5.97;;;5.47;;
9968;SDS011;5025;48.890;9.278;2023-04-06T02:11:01;5.50;;;5.00;;
9968;SDS011;5025;48.890;9.278;2023-04-06T02:13:26;6.10;;;5.60;;
9968;SDS011;5025;48.890;9.278;2023-04-06T02:15:52;5.53;;;5.03;;
9968;SDS011;5025;48.890;9.278;2023-04-06T02:18:17;7.27;;;5.50;;
9968;SDS011;5025;48.890;9.278;2023-04-06T02:20:43;5.53;;;5.13;;
9968;SDS011;5025;48.890;9.278;2023-04-06T02:23:09;5.87;;;5.37;;
9968;SDS011;5025;48.890;9.278;2023-04-06T02:25:34;5.33;;;4.93;;
9968;SDS011;5025;48.890;9.278;2023-04-06T02:28:00;5.90;;;5.33;;
9968;SDS011;5025;48.890;9.278;2023-04-06T02:30:25;5.63;;;5.17;;
9968;SDS011;5025;48.890;9.278;2023-04-06T02:32:50;6.43;;;5.83;;
9968;SDS011;5025;48.890;9.278;2023-04-06T02:35:16;5.90;;;5.40;;
9968;SDS011;5025;48.890;9.278;2023-04-06T02:37:41;6.10;;;5.60;;
9968;SDS011;5025;48.890;9.278;2023-04-06T02:40:06;6.00;;;5.40;;
9968;SDS011;5025;48.890;9.278;2023-04-06T02:42:32;6.33;;;5.83;;
9968;SDS011;5025;48.890;9.278;2023-04-06T02:44:57;5.70;;;5.20;;
9968;SDS011;5025;48.890;9.278;2023-04-06T02:47:23;6.13;;;5.63;;
9968;SDS011;5025;48.890;9.278;2023-04-06T02:49:48;8.13;;;6.10;;
9968;SDS011;5025;48.890;9.278;2023-04-06T02:52:13;5.60;;;5.10;;
9968;SDS011;5025;48.890;9.278;2023-04-06T02:54:39;6.10;;;5.60;;
9968;SDS011;5025;48.890;9.278;2023-04-06T02:57:04;7.80;;;5.63;;
9968;SDS011;5025;48.890;9.278;2023-04-06T02:59:30;5.80;;;5.30;;
9968;SDS011;5025;48.890;9.278;2023-04-06T03:01:56;5.97;;;5.40;;
9968;SDS011;5025;48.890;9.278;2023-04-06T03:04:21;5.90;;;5.40;;
9968;SDS011;5025;48.890;9.278;2023-04-06T03:06:50;6.20;;;5.60;;
9968;SDS011;5025;48.890;9.278;2023-04-06T03:09:15;6.17;;;5.67;;
9968;SDS011;5025;48.890;9.278;2023-04-06T03:11:40;6.40;;;5.80;;
9968;SDS011;5025;48.890;9.278;2023-04-06T03:14:06;5.63;;;5.13;;
9968;SDS011;5025;48.890;9.278;2023-04-06T03:16:31;6.03;;;5.50;;
9968;SDS011;5025;48.890;9.278;2023-04-06T03:18:56;6.07;;;5.33;;
9968;SDS011;5025;48.890;9.278;2023-04-06T03:21:21;5.93;;;5.43;;
9968;SDS011;5025;48.890;9.278;2023-04-06T03:23:47;6.53;;;5.93;;
9968;SDS011;5025;48.890;9.278;2023-04-06T03:26:14;6.23;;;5.63;;
9968;SDS011;5025;48.890;9.278;2023-04-06T03:28:40;6.50;;;5.77;;
9968;SDS011;5025;48.890;9.278;2023-04-06T03:31:05;6.70;;;6.10;;
9968;SDS011;5025;48.890;9.278;2023-04-06T03:33:30;6.10;;;5.50;;
9968;SDS011;5025;48.890;9.278;2023-04-06T03:35:55;6.30;;;5.60;;
9968;SDS011;5025;48.890;9.278;2023-04-06T03:38:21;6.17;;;5.57;;
9968;SDS011;5025;48.890;9.278;2023-04-06T03:40:46;6.53;;;5.90;;
9968;SDS011;5025;48.890;9.278;2023-04-06T03:43:11;6.17;;;5.57;;
9968;SDS011;5025;48.890;9.278;2023-04-06T03:45:37;6.73;;;5.93;;
9968;SDS011;5025;48.890;9.278;2023-04-06T03:48:02;6.67;;;6.00;;
9968;SDS011;5025;48.890;9.278;2023-04-06T03:50:28;5.87;;;5.30;;
9968;SDS011;5025;48.890;9.278;2023-04-06T03:52:53;7.33;;;5.70;;
9968;SDS011;5025;48.890;9.278;2023-04-06T03:55:18;6.10;;;5.60;;
9968;SDS011;5025;48.890;9.278;2023-04-06T03:57:43;6.07;;;5.50;;
9968;SDS011;5025;48.890;9.278;2023-04-06T04:00:09;5.73;;;5.33;;
9968;SDS011;5025;48.890;9.278;2023-04-06T04:02:35;6.50;;;5.97;;
9968;SDS011;5025;48.890;9.278;2023-04-06T04:05:03;5.43;;;4.93;;
9968;SDS011;5025;48.890;9.278;2023-04-06T04:07:29;5.73;;;5.20;;
9968;SDS011;5025;48.890;9.278;2023-04-06T04:09:55;6.13;;;5.63;;
9968;SDS011;5025;48.890;9.278;2023-04-06T04:12:20;5.67;;;5.17;;
9968;SDS011;5025;48.890;9.278;2023-04-06T04:14:46;5.50;;;4.97;;
9968;SDS011;5025;48.890;9.278;2023-04-06T04:17:11;5.70;;;5.20;;
9968;SDS011;5025;48.890;9.278;2023-04-06T04:19:36;6.17;;;5.43;;
9968;SDS011;5025;48.890;9.278;2023-04-06T04:22:02;6.60;;;6.00;;
9968;SDS011;5025;48.890;9.278;2023-04-06T04:24:29;6.07;;;5.57;;
9968;SDS011;5025;48.890;9.278;2023-04-06T04:26:55;6.03;;;5.50;;
9968;SDS011;5025;48.890;9.278;2023-04-06T04:29:21;5.60;;;5.10;;
9968;SDS011;5025;48.890;9.278;2023-04-06T04:31:47;6.40;;;5.80;;
9968;SDS011;5025;48.890;9.278;2023-04-06T04:34:13;6.43;;;5.83;;
9968;SDS011;5025;48.890;9.278;2023-04-06T04:36:39;6.97;;;6.27;;
9968;SDS011;5025;48.890;9.278;2023-04-06T04:39:06;7.13;;;6.40;;
9968;SDS011;5025;48.890;9.278;2023-04-06T04:41:32;6.77;;;6.10;;
9968;SDS011;5025;48.890;9.278;2023-04-06T04:43:57;7.77;;;6.00;;
9968;SDS011;5025;48.890;9.278;2023-04-06T04:46:22;8.87;;;7.10;;
9968;SDS011;5025;48.890;9.278;2023-04-06T04:48:48;7.03;;;6.33;;
9968;SDS011;5025;48.890;9.278;2023-04-06T04:51:13;6.80;;;6.13;;
9968;SDS011;5025;48.890;9.278;2023-04-06T04:53:38;7.03;;;5.90;;
9968;SDS011;5025;48.890;9.278;2023-04-06T04:56:04;6.10;;;5.50;;
9968;SDS011;5025;48.890;9.278;2023-04-06T04:58:29;6.10;;;5.60;;
9968;SDS011;5025;48.890;9.278;2023-04-06T05:00:55;6.90;;;5.50;;
9968;SDS011;5025;48.890;9.278;2023-04-06T05:03:24;5.70;;;5.20;;
9968;SDS011;5025;48.890;9.278;2023-04-06T05:05:51;5.80;;;5.27;;
9968;SDS011;5025;48.890;9.278;2023-04-06T05:08:17;6.13;;;5.53;;
9968;SDS011;5025;48.890;9.278;2023-04-06T05:10:42;5.60;;;5.10;;
9968;SDS011;5025;48.890;9.278;2023-04-06T05:13:09;6.33;;;5.73;;
9968;SDS011;5025;48.890;9.278;2023-04-06T05:15:34;5.80;;;5.30;;
9968;SDS011;5025;48.890;9.278;2023-04-06T05:18:00;6.40;;;5.80;;
9968;SDS011;5025;48.890;9.278;2023-04-06T05:20:26;5.57;;;5.07;;
9968;SDS011;5025;48.890;9.278;2023-04-06T05:22:51;6.13;;;5.53;;
9968;SDS011;5025;48.890;9.278;2023-04-06T05:25:17;5.53;;;5.03;;
9968;SDS011;5025;48.890;9.278;2023-04-06T05:27:42;6.00;;;5.40;;
9968;SDS011;5025;48.890;9.278;2023-04-06T05:30:07;5.60;;;5.10;;
9968;SDS011;5025;48.890;9.278;2023-04-06T05:32:33;6.50;;;5.90;;
9968;SDS011;5025;48.890;9.278;2023-04-06T05:34:59;6.40;;;5.80;;
9968;SDS011;5025;48.890;9.278;2023-04-06T05:37:24;5.40;;;5.00;;
9968;SDS011;5025;48.890;9.278;2023-04-06T05:39:50;5.87;;;5.33;;
9968;SDS011;5025;48.890;9.278;2023-04-06T05:42:15;5.57;;;5.13;;
9968;SDS011;5025;48.890;9.278;2023-04-06T05:44:41;6.00;;;5.40;;
9968;SDS011;5025;48.890;9.278;2023-04-06T05:47:06;5.63;;;5.13;;
9968;SDS011;5025;48.890;9.278;2023-04-06T05:49:32;7.97;;;6.10;;
9968;SDS011;5025;48.890;9.278;2023-04-06T05:51:57;5.70;;;5.17;;
9968;SDS011;5025;48.890;9.278;2023-04-06T05:54:22;6.20;;;5.60;;
9968;SDS011;5025;48.890;9.278;2023-04-06T05:56:48;6.00;;;5.40;;
9968;SDS011;5025;48.890;9.278;2023-04-06T05:59:13;5.87;;;5.37;;
9968;SDS011;5025;48.890;9.278;2023-04-06T06:01:38;6.10;;;5.60;;
9968;SDS011;5025;48.890;9.278;2023-04-06T06:04:04;5.87;;;5.33;;
9968;SDS011;5025;48.890;9.278;2023-04-06T06:06:29;6.07;;;5.50;;
9968;SDS011;5025;48.890;9.278;2023-04-06T06:08:55;6.30;;;5.70;;
9968;SDS011;5025;48.890;9.278;2023-04-06T06:11:24;8.33;;;7.43;;
9968;SDS011;5025;48.890;9.278;2023-04-06T06:13:49;7.60;;;6.93;;
9968;SDS011;5025;48.890;9.278;2023-04-06T06:16:14;8.60;;;7.80;;
9968;SDS011;5025;48.890;9.278;2023-04-06T06:18:40;8.70;;;7.90;;
9968;SDS011;5025;48.890;9.278;2023-04-06T06:21:05;7.40;;;6.80;;
9968;SDS011;5025;48.890;9.278;2023-04-06T06:23:31;8.73;;;7.20;;
9968;SDS011;5025;48.890;9.278;2023-04-06T06:25:56;7.50;;;6.80;;
9968;SDS011;5025;48.890;9.278;2023-04-06T06:28:23;7.33;;;6.47;;
9968;SDS011;5025;48.890;9.278;2023-04-06T06:30:49;6.70;;;6.10;;
9968;SDS011;5025;48.890;9.278;2023-04-06T06:33:15;7.97;;;6.43;;
9968;SDS011;5025;48.890;9.278;2023-04-06T06:35:40;7.13;;;6.43;;
9968;SDS011;5025;48.890;9.278;2023-04-06T06:38:06;7.53;;;6.77;;
9968;SDS011;5025;48.890;9.278;2023-04-06T06:40:31;9.83;;;8.07;;
9968;SDS011;5025;48.890;9.278;2023-04-06T06:42:56;9.67;;;8.63;;
9968;SDS011;5025;48.890;9.278;2023-04-06T06:45:22;8.77;;;7.97;;
9968;SDS011;5025;48.890;9.278;2023-04-06T06:47:47;9.27;;;8.37;;
9968;SDS011;5025;48.890;9.278;2023-04-06T06:50:12;8.60;;;7.80;;
9968;SDS011;5025;48.890;9.278;2023-04-06T06:52:38;8.73;;;7.50;;
9968;SDS011;5025;48.890;9.278;2023-04-06T06:55:04;9.00;;;8.10;;
9968;SDS011;5025;48.890;9.278;2023-04-06T06:57:30;8.63;;;7.73;;
9968;SDS011;5025;48.890;9.278;2023-04-06T06:59:55;7.57;;;6.83;;
9968;SDS011;5025;48.890;9.278;2023-04-06T07:02:20;8.17;;;7.37;;
9968;SDS011;5025;48.890;9.278;2023-04-06T07:04:49;7.20;;;6.50;;
9968;SDS011;5025;48.890;9.278;2023-04-06T07:07:14;6.60;;;6.03;;
9968;SDS011;5025;48.890;9.278;2023-04-06T07:09:40;5.90;;;5.40;;
9968;SDS011;5025;48.890;9.278;2023-04-06T07:12:05;6.27;;;5.77;;
9968;SDS011;5025;48.890;9.278;2023-04-06T07:14:30;5.90;;;5.40;;
9968;SDS011;5025;48.890;9.278;2023-04-06T07:16:57;5.87;;;5.37;;
9968;SDS011;5025;48.890;9.278;2023-04-06T07:19:22;6.00;;;5.50;;
9968;SDS011;5025;48.890;9.278;2023-04-06T07:21:47;5.63;;;5.20;;
9968;SDS011;5025;48.890;9.278;2023-04-06T07:24:14;6.07;;;5.47;;
9968;SDS011;5025;48.890;9.278;2023-04-06T07:26:40;5.70;;;5.13;;
9968;SDS011;5025;48.890;9.278;2023-04-06T07:29:05;7.50;;;6.90;;
9968;SDS011;5025;48.890;9.278;2023-04-06T07:31:30;8.23;;;7.53;;
9968;SDS011;5025;48.890;9.278;2023-04-06T07:33:56;7.07;;;6.47;;
9968;SDS011;5025;48.890;9.278;2023-04-06T07:36:21;7.97;;;7.27;;
9968;SDS011;5025;48.890;9.278;2023-04-06T07:38:46;6.73;;;6.13;;
9968;SDS011;5025;48.890;9.278;2023-04-06T07:41:12;7.53;;;6.73;;
9968;SDS011;5025;48.890;9.278;2023-04-06T07:43:37;6.43;;;5.83;;
9968;SDS011;5025;48.890;9.278;2023-04-06T07:46:03;7.40;;;6.80;;
9968;SDS011;5025;48.890;9.278;2023-04-06T07:48:28;9.80;;;7.67;;
9968;SDS011;5025;48.890;9.278;2023-04-06T07:51:00;7.47;;;6.87;;
9968;SDS011;5025;48.890;9.278;2023-04-06T07:53:27;7.00;;;6.40;;
9968;SDS011;5025;48.890;9.278;2023-04-06T07:55:52;6.73;;;6.13;;
9968;SDS011;5025;48.890;9.278;2023-04-06T07:58:18;6.50;;;5.90;;
9968;SDS011;5025;48.890;9.278;2023-04-06T08:00:43;7.30;;;6.70;;
9968;SDS011;5025;48.890;9.278;2023-04-06T08:03:08;6.87;;;6.27;;
9968;SDS011;5025;48.890;9.278;2023-04-06T08:05:34;7.00;;;6.40;;
9968;SDS011;5025;48.890;9.278;2023-04-06T08:07:59;6.30;;;5.70;;
9968;SDS011;5025;48.890;9.278;2023-04-06T08:10:24;6.60;;;6.00;;
9968;SDS011;5025;48.890;9.278;2023-04-06T08:12:50;9.67;;;8.40;;
9968;SDS011;5025;48.890;9.278;2023-04-06T08:15:15;8.80;;;8.00;;
9968;SDS011;5025;48.890;9.278;2023-04-06T08:17:43;9.20;;;8.27;;
9968;SDS011;5025;48.890;9.278;2023-04-06T08:20:08;8.07;;;7.27;;
9968;SDS011;5025;48.890;9.278;2023-04-06T08:22:33;7.30;;;6.60;;
9968;SDS011;5025;48.890;9.278;2023-04-06T08:24:59;7.73;;;6.97;;
9968;SDS011;5025;48.890;9.278;2023-04-06T08:27:24;8.33;;;7.53;;
9968;SDS011;5025;48.890;9.278;2023-04-06T08:29:50;9.93;;;8.93;;
9968;SDS011;5025;48.890;9.278;2023-04-06T08:32:16;10.10;;;8.77;;
9968;SDS011;5025;48.890;9.278;2023-04-06T08:34:42;8.67;;;7.67;;
9968;SDS011;5025;48.890;9.278;2023-04-06T08:37:07;9.30;;;8.27;;
9968;SDS011;5025;48.890;9.278;2023-04-06T08:39:32;11.37;;;8.97;;
9968;SDS011;5025;48.890;9.278;2023-04-06T08:41:58;8.77;;;7.87;;
9968;SDS011;5025;48.890;9.278;2023-04-06T08:44:27;8.47;;;7.20;;
9968;SDS011;5025;48.890;9.278;2023-04-06T08:46:54;7.40;;;6.70;;
9968;SDS011;5025;48.890;9.278;2023-04-06T08:49:20;8.43;;;7.60;;
9968;SDS011;5025;48.890;9.278;2023-04-06T08:51:45;7.60;;;6.60;;
9968;SDS011;5025;48.890;9.278;2023-04-06T08:54:12;8.97;;;7.70;;
9968;SDS011;5025;48.890;9.278;2023-04-06T08:56:37;9.43;;;8.47;;
9968;SDS011;5025;48.890;9.278;2023-04-06T08:59:04;8.77;;;7.70;;
9968;SDS011;5025;48.890;9.278;2023-04-06T09:01:30;7.60;;;6.90;;
9968;SDS011;5025;48.890;9.278;2023-04-06T09:03:59;6.67;;;6.07;;
9968;SDS011;5025;48.890;9.278;2023-04-06T09:06:32;6.47;;;5.87;;
9968;SDS011;5025;48.890;9.278;2023-04-06T09:08:57;5.80;;;5.20;;
9968;SDS011;5025;48.890;9.278;2023-04-06T09:11:23;6.40;;;5.80;;
9968;SDS011;5025;48.890;9.278;2023-04-06T09:13:49;5.70;;;5.20;;
9968;SDS011;5025;48.890;9.278;2023-04-06T09:16:16;5.13;;;4.73;;
9968;SDS011;5025;48.890;9.278;2023-04-06T09:18:42;5.83;;;5.23;;
9968;SDS011;5025;48.890;9.278;2023-04-06T09:21:08;6.27;;;5.67;;
9968;SDS011;5025;48.890;9.278;2023-04-06T09:23:34;5.27;;;4.77;;
9968;SDS011;5025;48.890;9.278;2023-04-06T09:26:04;6.00;;;5.50;;
9968;SDS011;5025;48.890;9.278;2023-04-06T09:28:41;6.20;;;5.67;;
9968;SDS011;5025;48.890;9.278;2023-04-06T09:31:06;5.17;;;4.77;;
9968;SDS011;5025;48.890;9.278;2023-04-06T09:33:31;5.10;;;4.70;;
9968;SDS011;5025;48.890;9.278;2023-04-06T09:35:57;6.07;;;5.57;;
9968;SDS011;5025;48.890;9.278;2023-04-06T09:38:22;5.57;;;5.10;;
9968;SDS011;5025;48.890;9.278;2023-04-06T09:40:50;7.77;;;6.73;;
9968;SDS011;5025;48.890;9.278;2023-04-06T09:43:26;6.53;;;6.00;;
9968;SDS011;5025;48.890;9.278;2023-04-06T09:45:52;7.27;;;6.57;;
9968;SDS011;5025;48.890;9.278;2023-04-06T09:48:18;10.70;;;8.60;;
9968;SDS011;5025;48.890;9.278;2023-04-06T09:50:46;8.57;;;7.67;;
9968;SDS011;5025;48.890;9.278;2023-04-06T09:53:12;8.53;;;7.73;;
9968;SDS011;5025;48.890;9.278;2023-04-06T09:55:42;10.00;;;8.43;;
9968;SDS011;5025;48.890;9.278;2023-04-06T09:58:17;8.30;;;7.50;;
9968;SDS011;5025;48.890;9.278;2023-04-06T10:00:54;7.50;;;6.90;;
9968;SDS011;5025;48.890;9.278;2023-04-06T10:03:45;8.17;;;7.33;;
9968;SDS011;5025;48.890;9.278;2023-04-06T10:06:17;6.60;;;6.07;;
9968;SDS011;5025;48.890;9.278;2023-04-06T10:08:47;6.17;;;5.37;;
9968;SDS011;5025;48.890;9.278;2023-04-06T10:11:15;6.27;;;5.67;;
9968;SDS011;5025;48.890;9.278;2023-04-06T10:13:41;5.90;;;5.23;;
9968;SDS011;5025;48.890;9.278;2023-04-06T10:16:07;6.43;;;5.90;;
9968;SDS011;5025;48.890;9.278;2023-04-06T10:18:32;5.67;;;5.20;;
9968;SDS011;5025;48.890;9.278;2023-04-06T10:21:01;4.80;;;4.40;;
9968;SDS011;5025;48.890;9.278;2023-04-06T10:23:51;6.67;;;6.07;;
9968;SDS011;5025;48.890;9.278;2023-04-06T10:26:22;6.03;;;5.53;;
9968;SDS011;5025;48.890;9.278;2023-04-06T10:28:48;5.10;;;4.70;;
9968;SDS011;5025;48.890;9.278;2023-04-06T10:31:14;7.70;;;7.00;;
9968;SDS011;5025;48.890;9.278;2023-04-06T10:33:40;7.77;;;7.07;;
9968;SDS011;5025;48.890;9.278;2023-04-06T10:36:12;8.37;;;7.33;;
9968;SDS011;5025;48.890;9.278;2023-04-06T10:38:40;7.70;;;7.03;;
9968;SDS011;5025;48.890;9.278;2023-04-06T10:41:07;7.63;;;6.93;;
9968;SDS011;5025;48.890;9.278;2023-04-06T10:43:34;7.27;;;6.50;;
9968;SDS011;5025;48.890;9.278;2023-04-06T10:46:01;7.63;;;6.83;;
9968;SDS011;5025;48.890;9.278;2023-04-06T10:48:37;6.07;;;5.57;;
9968;SDS011;5025;48.890;9.278;2023-04-06T10:51:07;5.87;;;5.37;;
9968;SDS011;5025;48.890;9.278;2023-04-06T10:53:34;4.43;;;4.03;;
9968;SDS011;5025;48.890;9.278;2023-04-06T10:55:59;9.00;;;6.70;;
9968;SDS011;5025;48.890;9.278;2023-04-06T10:58:26;7.83;;;7.03;;
9968;SDS011;5025;48.890;9.278;2023-04-06T11:00:52;6.40;;;5.90;;
9968;SDS011;5025;48.890;9.278;2023-04-06T11:03:19;6.10;;;5.60;;
9968;SDS011;5025;48.890;9.278;2023-04-06T11:05:45;5.20;;;4.80;;
9968;SDS011;5025;48.890;9.278;2023-04-06T11:08:30;5.60;;;5.20;;
9968;SDS011;5025;48.890;9.278;2023-04-06T11:11:07;7.17;;;6.53;;
9968;SDS011;5025;48.890;9.278;2023-04-06T11:13:43;8.00;;;7.20;;
9968;SDS011;5025;48.890;9.278;2023-04-06T11:16:22;6.40;;;5.80;;
9968;SDS011;5025;48.890;9.278;2023-04-06T11:18:53;5.77;;;5.30;;
9968;SDS011;5025;48.890;9.278;2023-04-06T11:21:32;4.70;;;4.40;;
9968;SDS011;5025;48.890;9.278;2023-04-06T11:26:40;4.50;;;4.10;;
9968;SDS011;5025;48.890;9.278;2023-04-06T11:29:18;8.20;;;7.50;;
9968;SDS011;5025;48.890;9.278;2023-04-06T11:31:48;7.60;;;6.80;;
9968;SDS011;5025;48.890;9.278;2023-04-06T11:34:16;6.33;;;5.83;;
9968;SDS011;5025;48.890;9.278;2023-04-06T11:36:44;7.97;;;7.17;;
9968;SDS011;5025;48.890;9.278;2023-04-06T11:39:11;5.83;;;5.37;;
9968;SDS011;5025;48.890;9.278;2023-04-06T11:41:37;5.63;;;5.13;;
9968;SDS011;5025;48.890;9.278;2023-04-06T11:44:03;7.27;;;6.67;;
9968;SDS011;5025;48.890;9.278;2023-04-06T11:46:28;6.43;;;5.83;;
9968;SDS011;5025;48.890;9.278;2023-04-06T11:48:57;5.93;;;5.43;;
9968;SDS011;5025;48.890;9.278;2023-04-06T11:51:25;4.90;;;4.50;;
9968;SDS011;5025;48.890;9.278;2023-04-06T11:53:51;4.77;;;4.37;;
9968;SDS011;5025;48.890;9.278;2023-04-06T11:56:24;7.20;;;6.60;;
9968;SDS011;5025;48.890;9.278;2023-04-06T11:58:49;5.17;;;4.77;;
9968;SDS011;5025;48.890;9.278;2023-04-06T12:01:15;5.10;;;4.70;;
9968;SDS011;5025;48.890;9.278;2023-04-06T12:03:40;6.30;;;5.70;;
9968;SDS011;5025;48.890;9.278;2023-04-06T12:06:05;5.90;;;5.40;;
9968;SDS011;5025;48.890;9.278;2023-04-06T12:08:31;6.53;;;5.97;;
9968;SDS011;5025;48.890;9.278;2023-04-06T12:10:56;7.40;;;6.47;;
9968;SDS011;5025;48.890;9.278;2023-04-06T12:13:21;7.90;;;7.10;;
9968;SDS011;5025;48.890;9.278;2023-04-06T12:15:47;6.20;;;5.70;;
9968;SDS011;5025;48.890;9.278;2023-04-06T12:18:12;8.07;;;7.20;;
9968;SDS011;5025;48.890;9.278;2023-04-06T12:20:37;7.57;;;6.87;;
9968;SDS011;5025;48.890;9.278;2023-04-06T12:23:02;7.70;;;7.00;;
9968;SDS011;5025;48.890;9.278;2023-04-06T12:25:28;8.10;;;7.40;;
9968;SDS011;5025;48.890;9.278;2023-04-06T12:27:53;7.23;;;6.53;;
9968;SDS011;5025;48.890;9.278;2023-04-06T12:30:18;7.37;;;6.67;;
9968;SDS011;5025;48.890;9.278;2023-04-06T12:32:44;6.20;;;5.70;;
9968;SDS011;5025;48.890;9.278;2023-04-06T12:35:09;5.40;;;5.00;;
9968;SDS011;5025;48.890;9.278;2023-04-06T12:37:36;5.70;;;5.20;;
9968;SDS011;5025;48.890;9.278;2023-04-06T12:40:02;5.93;;;5.43;;
9968;SDS011;5025;48.890;9.278;2023-04-06T12:42:28;4.27;;;3.97;;
9968;SDS011;5025;48.890;9.278;2023-04-06T12:44:56;5.40;;;4.97;;
9968;SDS011;5025;48.890;9.278;2023-04-06T12:47:22;5.80;;;5.30;;
9968;SDS011;5025;48.890;9.278;2023-04-06T12:49:47;5.30;;;4.80;;
9968;SDS011;5025;48.890;9.278;2023-04-06T12:52:13;4.83;;;4.43;;
9968;SDS011;5025;48.890;9.278;2023-04-06T12:54:38;4.83;;;4.43;;
9968;SDS011;5025;48.890;9.278;2023-04-06T12:57:03;4.60;;;4.27;;
9968;SDS011;5025;48.890;9.278;2023-04-06T12:59:29;5.10;;;4.70;;
9968;SDS011;5025;48.890;9.278;2023-04-06T13:01:59;7.27;;;6.67;;
9968;SDS011;5025;48.890;9.278;2023-04-06T13:04:25;6.37;;;5.87;;
9968;SDS011;5025;48.890;9.278;2023-04-06T13:06:51;7.10;;;6.37;;
9968;SDS011;5025;48.890;9.278;2023-04-06T13:09:16;6.80;;;6.10;;
9968;SDS011;5025;48.890;9.278;2023-04-06T13:11:41;6.50;;;5.90;;
9968;SDS011;5025;48.890;9.278;2023-04-06T13:14:07;7.37;;;6.77;;
9968;SDS011;5025;48.890;9.278;2023-04-06T13:16:32;6.43;;;5.93;;
9968;SDS011;5025;48.890;9.278;2023-04-06T13:18:57;6.50;;;6.00;;
9968;SDS011;5025;48.890;9.278;2023-04-06T13:21:23;5.13;;;4.73;;
9968;SDS011;5025;48.890;9.278;2023-04-06T13:23:48;4.10;;;3.80;;
9968;SDS011;5025;48.890;9.278;2023-04-06T13:26:13;4.60;;;4.20;;
9968;SDS011;5025;48.890;9.278;2023-04-06T13:28:40;5.10;;;4.70;;
9968;SDS011;5025;48.890;9.278;2023-04-06T13:31:06;4.93;;;4.53;;
9968;SDS011;5025;48.890;9.278;2023-04-06T13:33:31;7.07;;;6.50;;
9968;SDS011;5025;48.890;9.278;2023-04-06T13:35:57;5.73;;;5.23;;
9968;SDS011;5025;48.890;9.278;2023-04-06T13:38:23;4.37;;;4.07;;
9968;SDS011;5025;48.890;9.278;2023-04-06T13:40:49;4.90;;;4.50;;
9968;SDS011;5025;48.890;9.278;2023-04-06T13:43:14;6.43;;;5.83;;
9968;SDS011;5025;48.890;9.278;2023-04-06T13:45:40;6.70;;;6.20;;
9968;SDS011;5025;48.890;9.278;2023-04-06T13:48:05;6.33;;;5.73;;
9968;SDS011;5025;48.890;9.278;2023-04-06T13:50:31;4.33;;;4.03;;
9968;SDS011;5025;48.890;9.278;2023-04-06T13:52:57;5.77;;;5.27;;
9968;SDS011;5025;48.890;9.278;2023-04-06T13:55:22;5.27;;;4.77;;
9968;SDS011;5025;48.890;9.278;2023-04-06T13:57:49;6.23;;;5.67;;
9968;SDS011;5025;48.890;9.278;2023-04-06T14:00:15;4.73;;;4.43;;
9968;SDS011;5025;48.890;9.278;2023-04-06T14:02:40;3.97;;;3.67;;
9968;SDS011;5025;48.890;9.278;2023-04-06T14:05:06;5.00;;;4.60;;
9968;SDS011;5025;48.890;9.278;2023-04-06T14:07:31;4.57;;;4.17;;
9968;SDS011;5025;48.890;9.278;2023-04-06T14:09:57;4.37;;;3.97;;
9968;SDS011;5025;48.890;9.278;2023-04-06T14:12:22;4.17;;;3.87;;
9968;SDS011;5025;48.890;9.278;2023-04-06T14:14:47;4.33;;;3.83;;
9968;SDS011;5025;48.890;9.278;2023-04-06T14:17:13;5.63;;;5.13;;
9968;SDS011;5025;48.890;9.278;2023-04-06T14:19:38;5.10;;;4.70;;
9968;SDS011;5025;48.890;9.278;2023-04-06T14:22:03;5.93;;;5.20;;
9968;SDS011;5025;48.890;9.278;2023-04-06T14:24:29;4.20;;;3.90;;
9968;SDS011;5025;48.890;9.278;2023-04-06T14:26:55;4.30;;;4.00;;
9968;SDS011;5025;48.890;9.278;2023-04-06T14:29:21;5.07;;;4.57;;
9968;SDS011;5025;48.890;9.278;2023-04-06T14:31:47;4.40;;;4.10;;
9968;SDS011;5025;48.890;9.278;2023-04-06T14:34:12;3.80;;;3.50;;
9968;SDS011;5025;48.890;9.278;2023-04-06T14:36:38;3.90;;;3.60;;
9968;SDS011;5025;48.890;9.278;2023-04-06T14:39:04;4.80;;;4.40;;
9968;SDS011;5025;48.890;9.278;2023-04-06T14:41:30;4.13;;;3.83;;
9968;SDS011;5025;48.890;9.278;2023-04-06T14:43:56;3.90;;;3.60;;
9968;SDS011;5025;48.890;9.278;2023-04-06T14:46:22;3.20;;;3.00;;
9968;SDS011;5025;48.890;9.278;2023-04-06T14:48:47;4.77;;;4.37;;
9968;SDS011;5025;48.890;9.278;2023-04-06T14:51:12;4.20;;;3.80;;
9968;SDS011;5025;48.890;9.278;2023-04-06T14:53:38;4.63;;;4.33;;
9968;SDS011;5025;48.890;9.278;2023-04-06T14:56:03;4.93;;;4.43;;
9968;SDS011;5025;48.890;9.278;2023-04-06T14:58:29;5.33;;;4.93;;
9968;SDS011;5025;48.890;9.278;2023-04-06T15:00:55;3.97;;;3.67;;
9968;SDS011;5025;48.890;9.278;2023-04-06T15:03:22;4.10;;;3.80;;
9968;SDS011;5025;48.890;9.278;2023-04-06T15:05:50;5.40;;;4.90;;
9968;SDS011;5025;48.890;9.278;2023-04-06T15:08:16;5.90;;;5.40;;
9968;SDS011;5025;48.890;9.278;2023-04-06T15:10:42;4.03;;;3.73;;